createdAt,value
2019-04-14T00:02:27.167Z,81.90
2019-04-14T00:05:01.871Z,81.90
2019-04-14T00:07:31.894Z,81.90
2019-04-14T00:10:05.507Z,81.80
2019-04-14T00:12:34.491Z,81.70
2019-04-14T00:15:23.299Z,81.70
2019-04-14T00:17:43.478Z,81.50
2019-04-14T00:20:12.700Z,82.30
2019-04-14T00:22:42.492Z,81.80
2019-04-14T00:25:12.910Z,81.90
2019-04-14T00:27:47.936Z,81.90
2019-04-14T00:30:22.923Z,82.10
2019-04-14T00:32:57.432Z,82.20
2019-04-14T00:35:34.661Z,82.20
2019-04-14T00:38:41.299Z,82.20
2019-04-14T00:41:36.225Z,82.10
2019-04-14T00:44:18.913Z,81.80
2019-04-14T00:47:05.026Z,81.80
2019-04-14T00:49:37.607Z,82.30
2019-04-14T00:52:10.025Z,82.10
2019-04-14T00:54:39.569Z,82.50
2019-04-14T00:57:11.565Z,81.80
2019-04-14T00:59:40.598Z,81.40
2019-04-14T01:02:09.903Z,81.30
2019-04-14T01:04:42.662Z,81.50
2019-04-14T01:07:11.543Z,81.50
2019-04-14T01:09:44.842Z,81.60
2019-04-14T01:12:16.994Z,81.50
2019-04-14T01:14:47.403Z,81.80
2019-04-14T01:17:17.733Z,82.00
2019-04-14T01:19:46.596Z,82.20
2019-04-14T01:22:16.557Z,82.40
2019-04-14T01:24:48.970Z,82.40
2019-04-14T01:27:19.041Z,82.40
2019-04-14T01:29:49.445Z,82.40
2019-04-14T01:32:19.653Z,82.40
2019-04-14T01:34:52.826Z,82.30
2019-04-14T01:37:26.935Z,82.50
2019-04-14T01:39:56.708Z,82.50
2019-04-14T01:42:29.083Z,82.70
2019-04-14T01:44:59.293Z,82.60
2019-04-14T01:47:31.360Z,82.60
2019-04-14T01:50:03.813Z,82.40
2019-04-14T01:53:07.578Z,82.30
2019-04-14T01:55:46.641Z,82.20
2019-04-14T01:58:25.705Z,82.40
2019-04-14T02:01:13.489Z,82.90
2019-04-14T02:03:45.552Z,83.00
2019-04-14T02:06:17.879Z,83.10
2019-04-14T02:08:48.034Z,83.10
2019-04-14T02:11:18.790Z,83.10
2019-04-14T02:13:48.581Z,83.80
2019-04-14T02:16:32.338Z,83.00
2019-04-14T02:18:56.867Z,82.90
2019-04-14T02:21:26.288Z,82.80
2019-04-14T02:23:56.146Z,83.00
2019-04-14T02:26:26.264Z,82.80
2019-04-14T02:28:55.260Z,82.30
2019-04-14T02:31:54.976Z,82.60
2019-04-14T02:35:28.493Z,83.60
2019-04-14T02:36:58.481Z,82.40
2019-04-14T02:44:31.548Z,83.10
2019-04-14T02:47:03.441Z,82.50
2019-04-14T02:52:01.899Z,82.40
2019-04-14T02:54:37.375Z,82.60
2019-04-14T02:57:03.652Z,82.70
2019-04-14T02:59:29.122Z,82.50
2019-04-14T03:04:33.542Z,82.60
2019-04-14T03:07:14.327Z,82.80
2019-04-14T03:12:11.444Z,83.80
2019-04-14T03:14:50.329Z,83.70
2019-04-14T03:17:49.316Z,83.70
2019-04-14T03:20:47.611Z,83.90
2019-04-14T03:25:41.410Z,84.00
2019-04-14T03:28:36.474Z,83.70
2019-04-14T03:31:31.633Z,84.10
2019-04-14T03:34:06.250Z,84.10
2019-04-14T03:36:49.760Z,83.90
2019-04-14T03:38:36.552Z,84.20
2019-04-14T03:43:38.698Z,84.10
2019-04-14T03:46:17.813Z,84.10
2019-04-14T03:53:47.022Z,84.60
2019-04-14T03:56:29.157Z,84.70
2019-04-14T03:58:58.209Z,84.80
2019-04-14T04:01:27.986Z,84.80
2019-04-14T04:03:58.516Z,85.00
2019-04-14T04:06:27.549Z,84.90
2019-04-14T04:08:57.377Z,85.10
2019-04-14T04:11:26.533Z,85.00
2019-04-14T04:13:56.371Z,85.20
2019-04-14T04:16:41.935Z,85.00
2019-04-14T04:19:19.634Z,85.20
2019-04-14T04:22:04.235Z,85.10
2019-04-14T04:24:41.122Z,85.20
2019-04-14T04:27:38.081Z,85.10
2019-04-14T04:30:34.084Z,85.20
2019-04-14T04:33:19.890Z,85.50
2019-04-14T04:35:52.832Z,85.50
2019-04-14T04:38:46.326Z,85.50
2019-04-14T04:41:16.749Z,85.70
2019-04-14T04:43:47.334Z,85.70
2019-04-14T04:46:17.599Z,85.60
2019-04-14T04:48:58.309Z,85.60
2019-04-14T04:51:18.194Z,85.50
2019-04-14T04:53:48.351Z,85.60
2019-04-14T04:56:20.790Z,85.60
2019-04-14T04:58:50.185Z,85.60
2019-04-14T05:01:19.257Z,85.70
2019-04-14T05:03:49.280Z,85.70
2019-04-14T05:06:57.077Z,85.60
2019-04-14T05:09:44.848Z,85.70
2019-04-14T05:12:39.183Z,85.80
2019-04-14T05:15:27.099Z,85.80
2019-04-14T05:17:55.980Z,85.70
2019-04-14T05:20:27.155Z,85.90
2019-04-14T05:22:57.165Z,85.60
2019-04-14T05:25:27.309Z,85.50
2019-04-14T05:27:57.948Z,85.50
2019-04-14T05:30:27.141Z,85.40
2019-04-14T05:32:56.659Z,85.50
2019-04-14T05:35:27.012Z,85.60
2019-04-14T05:37:59.670Z,85.60
2019-04-14T05:40:29.980Z,85.70
2019-04-14T05:43:00.159Z,85.60
2019-04-14T05:45:31.107Z,85.60
2019-04-14T05:48:01.381Z,85.50
2019-04-14T05:50:31.579Z,85.40
2019-04-14T05:53:02.462Z,85.70
2019-04-14T05:55:32.682Z,85.50
2019-04-14T05:58:03.624Z,85.60
2019-04-14T06:00:34.220Z,85.60
2019-04-14T06:03:05.994Z,85.40
2019-04-14T06:05:36.073Z,85.30
2019-04-14T06:08:05.246Z,85.10
2019-04-14T06:10:34.851Z,85.10
2019-04-14T06:13:06.674Z,84.90
2019-04-14T06:15:36.493Z,84.70
2019-04-14T06:18:06.659Z,84.80
2019-04-14T06:20:35.597Z,84.10
2019-04-14T06:23:04.425Z,83.70
2019-04-14T06:25:36.200Z,83.50
2019-04-14T06:28:04.100Z,83.50
2019-04-14T06:30:55.173Z,84.00
2019-04-14T06:33:45.720Z,83.60
2019-04-14T06:36:33.751Z,83.30
2019-04-14T06:39:09.256Z,83.00
2019-04-14T06:41:39.023Z,83.00
2019-04-14T06:44:07.896Z,83.00
2019-04-14T06:46:37.172Z,83.30
2019-04-14T06:49:06.247Z,83.50
2019-04-14T06:51:35.405Z,83.90
2019-04-14T06:54:04.384Z,83.70
2019-04-14T06:56:33.521Z,83.50
2019-04-14T06:59:06.697Z,84.20
2019-04-14T07:01:35.599Z,84.20
2019-04-14T07:04:04.661Z,83.00
2019-04-14T07:06:35.609Z,82.30
2019-04-14T07:09:06.342Z,82.60
2019-04-14T07:11:36.632Z,83.20
2019-04-14T07:14:05.690Z,82.90
2019-04-14T07:16:34.651Z,82.40
2019-04-14T07:19:10.780Z,82.00
2019-04-14T07:21:39.957Z,82.20
2019-04-14T07:24:09.184Z,81.90
2019-04-14T07:26:40.386Z,82.50
2019-04-14T07:29:09.586Z,82.50
2019-04-14T07:31:58.918Z,82.10
2019-04-14T07:34:45.462Z,82.40
2019-04-14T07:37:27.780Z,80.70
2019-04-14T07:40:13.127Z,80.30
2019-04-14T07:42:46.791Z,80.60
2019-04-14T07:45:25.345Z,80.70
2019-04-14T07:48:03.457Z,81.10
2019-04-14T07:50:46.092Z,79.70
2019-04-14T07:53:32.845Z,79.50
2019-04-14T07:56:15.930Z,80.50
2019-04-14T07:58:59.211Z,80.20
2019-04-14T08:01:36.598Z,80.10
2019-04-14T08:04:15.192Z,80.10
2019-04-14T08:06:49.884Z,79.60
2019-04-14T08:09:19.552Z,79.30
2019-04-14T08:11:48.421Z,79.00
2019-04-14T08:14:23.537Z,79.00
2019-04-14T08:16:52.341Z,79.20
2019-04-14T08:19:22.452Z,79.20
2019-04-14T08:21:51.546Z,79.40
2019-04-14T08:24:20.441Z,78.80
2019-04-14T08:26:50.155Z,79.80
2019-04-14T08:29:19.133Z,78.60
2019-04-14T08:31:48.046Z,79.50
2019-04-14T08:34:16.952Z,77.90
2019-04-14T08:36:46.469Z,78.30
2019-04-14T08:39:17.563Z,78.40
2019-04-14T08:42:21.264Z,77.50
2019-04-14T08:44:51.717Z,75.30
2019-04-14T08:47:54.840Z,76.20
2019-04-14T08:50:39.695Z,76.30
2019-04-14T08:53:32.322Z,75.80
2019-04-14T08:56:41.853Z,74.50
2019-04-14T08:59:13.341Z,73.80
2019-04-14T09:02:07.276Z,75.90
2019-04-14T09:04:40.230Z,74.80
2019-04-14T09:07:25.303Z,73.50
2019-04-14T09:10:06.277Z,74.40
2019-04-14T09:12:54.970Z,74.20
2019-04-14T09:15:24.613Z,73.30
2019-04-14T09:17:55.517Z,73.00
2019-04-14T09:20:24.329Z,73.00
2019-04-14T09:23:17.598Z,72.90
2019-04-14T09:25:59.882Z,72.80
2019-04-14T09:28:30.548Z,71.90
2019-04-14T09:30:59.421Z,72.50
2019-04-14T09:33:30.926Z,71.80
2019-04-14T09:35:59.943Z,72.10
2019-04-14T09:38:28.896Z,71.40
2019-04-14T09:40:57.852Z,70.80
2019-04-14T09:43:26.772Z,70.60
2019-04-14T09:45:56.308Z,69.60
2019-04-14T09:48:27.260Z,68.50
2019-04-14T09:51:04.594Z,69.30
2019-04-14T09:53:28.234Z,68.20
2019-04-14T09:55:57.685Z,67.20
2019-04-14T09:58:26.868Z,67.50
2019-04-14T10:00:58.911Z,67.20
2019-04-14T10:03:28.897Z,68.00
2019-04-14T10:05:58.965Z,67.90
2019-04-14T10:08:31.159Z,66.40
2019-04-14T10:11:02.107Z,66.20
2019-04-14T10:13:32.471Z,65.70
2019-04-14T10:16:03.113Z,66.00
2019-04-14T10:18:32.289Z,66.90
2019-04-14T10:21:16.771Z,65.50
2019-04-14T10:23:39.994Z,64.20
2019-04-14T10:26:18.066Z,63.00
2019-04-14T10:28:50.806Z,63.60
2019-04-14T10:32:21.090Z,63.30
2019-04-14T10:49:42.822Z,58.90
2019-04-14T10:52:29.758Z,57.70
2019-04-14T10:55:07.803Z,58.20
2019-04-14T10:57:37.377Z,57.10
2019-04-14T11:00:13.658Z,56.60
2019-04-14T11:02:46.211Z,56.00
2019-04-14T11:05:31.822Z,56.50
2019-04-14T11:08:08.925Z,55.70
2019-04-14T11:10:48.347Z,55.30
2019-04-14T11:13:23.059Z,55.20
2019-04-14T11:16:20.120Z,53.80
2019-04-14T11:18:49.641Z,53.30
2019-04-14T11:21:25.617Z,53.00
2019-04-14T11:25:27.424Z,53.10
2019-04-14T11:27:21.570Z,53.90
2019-04-14T11:29:59.941Z,53.80
2019-04-14T11:33:07.968Z,53.50
2019-04-14T11:35:47.691Z,52.90
2019-04-14T11:38:37.147Z,51.20
2019-04-14T11:48:30.387Z,51.70
2019-04-14T11:58:55.775Z,50.10
2019-04-14T12:01:48.458Z,49.00
2019-04-14T12:05:02.958Z,50.00
2019-04-14T12:08:02.142Z,50.20
2019-04-14T12:14:12.608Z,50.00
2019-04-14T12:16:52.027Z,49.00
2019-04-14T12:19:25.425Z,47.90
2019-04-14T12:22:07.685Z,47.90
2019-04-14T12:24:36.653Z,48.60
2019-04-14T12:27:12.809Z,48.70
2019-04-14T12:29:48.535Z,49.90
2019-04-14T12:32:22.657Z,48.90
2019-04-14T12:34:52.487Z,48.10
2019-04-14T12:37:37.092Z,48.30
2019-04-14T12:40:07.386Z,48.50
2019-04-14T12:43:08.387Z,48.00
2019-04-14T12:45:50.487Z,48.60
2019-04-14T12:48:34.974Z,48.00
2019-04-14T12:51:05.278Z,46.70
2019-04-14T12:53:35.911Z,47.30
2019-04-14T12:56:08.750Z,46.70
2019-04-14T12:58:53.969Z,47.00
2019-04-14T13:01:35.242Z,46.60
2019-04-14T13:04:12.023Z,46.60
2019-04-14T13:06:44.726Z,45.70
2019-04-14T13:09:17.110Z,44.70
2019-04-14T13:11:46.594Z,44.40
2019-04-14T13:14:19.834Z,45.10
2019-04-14T13:16:49.172Z,45.40
2019-04-14T13:19:27.318Z,44.20
2019-04-14T13:22:05.680Z,44.10
2019-04-14T13:24:33.300Z,42.80
2019-04-14T13:27:04.318Z,42.40
2019-04-14T13:29:36.853Z,43.60
2019-04-14T13:32:09.215Z,44.10
2019-04-14T13:34:45.297Z,44.00
2019-04-14T13:37:34.851Z,44.10
2019-04-14T13:41:19.170Z,44.00
2019-04-14T13:43:48.792Z,43.90
2019-04-14T13:46:23.632Z,43.10
2019-04-14T13:48:55.702Z,43.80
2019-04-14T13:51:27.768Z,43.50
2019-04-14T13:54:46.346Z,43.10
2019-04-14T13:57:17.688Z,42.70
2019-04-14T13:59:51.470Z,42.50
2019-04-14T14:02:45.139Z,43.00
2019-04-14T14:05:23.482Z,43.10
2019-04-14T14:08:30.584Z,43.80
2019-04-14T14:12:33.777Z,42.60
2019-04-14T14:15:08.954Z,42.60
2019-04-14T14:18:05.632Z,42.60
2019-04-14T14:21:05.736Z,41.90
2019-04-14T14:24:09.692Z,41.50
2019-04-14T14:26:50.751Z,41.20
2019-04-14T14:29:21.649Z,41.80
2019-04-14T14:31:55.691Z,42.40
2019-04-14T14:34:34.343Z,41.90
2019-04-14T14:37:05.210Z,41.10
2019-04-14T14:39:38.939Z,42.20
2019-04-14T14:42:10.908Z,43.00
2019-04-14T14:44:52.626Z,42.60
2019-04-14T14:47:45.837Z,42.60
2019-04-14T14:50:39.125Z,43.50
2019-04-14T14:53:12.347Z,41.90
2019-04-14T14:56:10.835Z,41.90
2019-04-14T15:01:43.683Z,42.90
2019-04-14T15:04:15.633Z,42.80
2019-04-14T15:06:55.906Z,42.60
2019-04-14T15:09:40.343Z,42.00
2019-04-14T15:12:20.735Z,43.50
2019-04-14T15:14:53.340Z,41.70
2019-04-14T15:17:38.446Z,42.60
2019-04-14T15:23:24.660Z,41.90
2019-04-14T15:25:54.526Z,41.50
2019-04-14T15:28:25.617Z,41.90
2019-04-14T15:30:55.080Z,41.30
2019-04-14T15:33:34.713Z,41.30
2019-04-14T15:36:35.469Z,41.70
2019-04-14T15:39:12.606Z,41.00
2019-04-14T15:41:56.399Z,41.10
2019-04-14T15:44:27.865Z,41.10
2019-04-14T15:47:03.113Z,40.30
2019-04-14T15:49:37.192Z,40.30
2019-04-14T15:52:06.745Z,40.70
2019-04-14T15:54:59.789Z,40.20
2019-04-14T15:58:01.688Z,40.30
2019-04-14T16:01:01.422Z,40.20
2019-04-14T16:14:55.104Z,41.20
2019-04-14T18:03:45.599Z,47.80
2019-04-14T18:07:27.317Z,48.40
2019-04-14T18:12:37.932Z,48.30
2019-04-14T18:17:42.389Z,48.70
2019-04-14T18:23:44.886Z,49.40
2019-04-14T18:30:36.617Z,49.90
2019-04-14T18:37:25.072Z,50.40
2019-04-14T18:41:39.845Z,50.50
2019-04-14T18:55:56.313Z,52.00
2019-04-14T18:59:11.767Z,52.20
2019-04-14T19:01:46.566Z,52.20
2019-04-14T19:08:31.976Z,52.60
2019-04-14T19:44:20.287Z,55.20
2019-04-14T20:21:16.524Z,57.40
2019-04-14T21:34:49.820Z,61.80
2019-04-14T21:39:03.390Z,62.10
2019-04-14T21:41:53.671Z,62.60
2019-04-14T21:44:35.964Z,62.60
2019-04-14T22:01:58.819Z,62.60
2019-04-14T22:03:11.217Z,62.80
2019-04-14T22:06:11.501Z,62.60
2019-04-14T22:09:20.329Z,62.30
2019-04-14T22:23:42.181Z,63.30
2019-04-14T22:27:36.746Z,63.50
2019-04-14T22:42:52.174Z,64.10
2019-04-14T22:46:20.615Z,64.60
2019-04-14T22:50:19.719Z,64.80
2019-04-14T23:16:31.386Z,66.90
2019-04-14T23:22:54.971Z,67.40
2019-04-14T23:26:18.214Z,67.50
2019-04-14T23:29:33.686Z,67.80
2019-04-14T23:33:12.931Z,68.00
2019-04-14T23:37:11.208Z,68.50
2019-04-14T23:38:44.662Z,68.70
2019-04-14T23:42:06.460Z,68.90
2019-04-14T23:44:55.962Z,69.20
2019-04-14T23:48:04.176Z,69.50
2019-04-14T23:53:59.361Z,70.20
2019-04-14T23:59:51.277Z,70.30
